createdAt,value
2023-01-26T05:14:51.531Z,47.74
2023-01-26T05:20:00.557Z,47.22
2023-01-26T05:25:18.097Z,47.73
2023-01-26T05:30:33.530Z,47.66
2023-01-26T05:35:38.364Z,48.93
2023-01-26T05:40:45.015Z,47.27
2023-01-26T05:45:50.256Z,48.54
2023-01-26T05:50:56.993Z,48.05
2023-01-26T05:56:00.520Z,47.13
2023-01-26T06:01:08.578Z,49.85
2023-01-26T06:06:20.767Z,47.46
2023-01-26T06:11:44.397Z,47.25
2023-01-26T06:17:18.683Z,48.88
2023-01-26T06:22:22.960Z,48.16
2023-01-26T06:27:27.819Z,48.08
2023-01-26T06:32:33.067Z,47.67
2023-01-26T06:37:36.900Z,48.07
2023-01-26T06:42:40.634Z,47.32
2023-01-26T06:47:49.523Z,47.43
2023-01-26T06:52:53.701Z,47.12
2023-01-26T06:58:17.371Z,47.36
2023-01-26T07:03:40.415Z,47.41
2023-01-26T07:08:43.811Z,46.87
2023-01-26T07:13:47.360Z,46.64
2023-01-26T07:18:53.676Z,47.13
2023-01-26T07:23:57.789Z,47.98
2023-01-26T07:29:01.347Z,47.27
2023-01-26T07:34:06.120Z,47.27
2023-01-26T07:39:09.705Z,47.88
2023-01-26T07:44:13.285Z,49.71
2023-01-26T07:49:37.525Z,47.85
2023-01-26T07:54:40.950Z,48.07
2023-01-26T07:59:44.360Z,48.56
2023-01-26T08:19:00.443Z,48.27
2023-01-26T08:24:04.060Z,47.53
2023-01-26T08:29:07.505Z,48.15
2023-01-26T08:34:12.304Z,46.45
2023-01-26T08:39:15.813Z,46.88
2023-01-26T08:44:19.186Z,47.06
2023-01-26T08:49:23.945Z,47.04
2023-01-26T08:54:27.457Z,47.55
2023-01-26T08:59:30.905Z,46.62
2023-01-26T09:04:35.746Z,47.27
2023-01-26T09:09:39.202Z,47.51
2023-01-26T09:14:42.589Z,46.54
2023-01-26T09:19:47.329Z,48.05
2023-01-26T09:24:50.688Z,47.67
2023-01-26T09:29:55.173Z,47.22
2023-01-26T09:34:59.973Z,47.00
2023-01-26T09:40:03.556Z,47.14
2023-01-26T09:45:23.531Z,47.28
2023-01-26T09:50:32.247Z,47.17
2023-01-26T09:55:35.724Z,48.71
2023-01-26T10:00:42.054Z,47.78
2023-01-26T10:05:48.920Z,47.88
2023-01-26T10:11:16.217Z,49.01
2023-01-26T10:16:19.626Z,47.82
2023-01-26T10:21:26.967Z,48.97
2023-01-26T10:26:32.405Z,48.15
2023-01-26T10:31:35.892Z,48.13
2023-01-26T10:36:43.459Z,47.23
2023-01-26T10:42:01.632Z,47.01
2023-01-26T10:47:15.659Z,47.34
2023-01-26T10:52:23.397Z,47.06
2023-01-26T10:57:28.912Z,48.06
2023-01-26T11:02:32.887Z,46.74
2023-01-26T11:07:39.096Z,46.05
2023-01-26T11:12:42.436Z,46.67
2023-01-26T11:17:51.206Z,47.42
2023-01-26T11:22:59.977Z,46.43
2023-01-26T11:28:15.879Z,47.67
2023-01-26T11:33:26.626Z,47.74
2023-01-26T11:38:38.221Z,47.18
2023-01-26T11:43:52.642Z,46.98
2023-01-26T11:49:07.461Z,47.92
2023-01-26T11:54:24.212Z,46.44
2023-01-26T11:59:29.788Z,46.69
2023-01-26T12:04:36.923Z,46.70
2023-01-26T12:09:45.357Z,46.66
2023-01-26T12:14:52.124Z,46.04
2023-01-26T12:20:04.415Z,47.83
2023-01-26T12:25:24.302Z,47.02
2023-01-26T12:30:33.984Z,47.51
2023-01-26T12:35:45.086Z,47.35
2023-01-26T12:40:59.723Z,47.19
2023-01-26T12:46:03.950Z,47.97
2023-01-26T12:51:10.164Z,48.62
2023-01-26T12:56:21.777Z,48.52
2023-01-26T13:01:26.697Z,48.42
2023-01-26T13:06:30.399Z,48.87
2023-01-26T13:11:49.279Z,48.43
2023-01-26T13:16:52.704Z,49.62
2023-01-26T13:21:56.267Z,49.04
2023-01-26T13:27:01.203Z,48.50
2023-01-26T13:32:37.742Z,48.62
2023-01-26T13:37:47.566Z,49.51
2023-01-26T13:42:57.422Z,48.56
2023-01-26T13:48:01.551Z,47.79
2023-01-26T13:53:27.648Z,48.17
2023-01-26T13:58:32.942Z,48.98
2023-01-26T14:03:36.537Z,49.16
2023-01-26T14:08:40.289Z,49.60
2023-01-26T14:13:45.153Z,48.23
2023-01-26T14:18:49.250Z,50.81
2023-01-26T14:23:56.960Z,47.98
2023-01-26T14:29:03.284Z,49.10
2023-01-26T14:34:10.325Z,50.94
2023-01-26T14:39:49.229Z,48.70
2023-01-26T14:44:53.914Z,48.13
2023-01-26T14:49:59.968Z,48.09
2023-01-26T14:55:07.333Z,47.94
2023-01-26T15:00:25.630Z,48.38
2023-01-26T15:05:33.942Z,49.17
2023-01-26T15:10:39.582Z,47.94
2023-01-26T15:15:48.503Z,47.52
2023-01-26T15:21:00.533Z,47.23
2023-01-26T15:26:08.734Z,47.70
2023-01-26T15:31:21.971Z,47.75
2023-01-26T15:36:28.444Z,48.30
2023-01-26T15:41:31.967Z,49.94
2023-01-26T15:46:36.744Z,49.37
2023-01-26T15:51:40.490Z,49.53
2023-01-26T15:56:44.104Z,49.95
2023-01-26T16:01:49.188Z,50.08
2023-01-26T16:06:52.638Z,48.87
2023-01-26T16:11:56.026Z,50.71
2023-01-26T16:17:00.792Z,49.65
2023-01-26T16:22:04.287Z,48.20
2023-01-26T16:27:08.207Z,48.30
2023-01-26T16:32:25.975Z,48.52
2023-01-26T16:37:29.468Z,49.45
2023-01-26T16:42:33.310Z,48.20
2023-01-26T16:47:38.227Z,48.04
2023-01-26T16:52:42.236Z,48.51
2023-01-26T16:57:47.623Z,47.94
2023-01-26T17:02:53.598Z,47.84
2023-01-26T17:07:57.046Z,47.79
2023-01-26T17:13:01.268Z,48.34
2023-01-26T17:18:06.217Z,49.28
2023-01-26T17:23:09.840Z,49.42
2023-01-26T17:28:13.249Z,48.80
2023-01-26T17:33:18.094Z,50.66
2023-01-26T17:38:21.493Z,50.82
2023-01-26T17:43:24.944Z,49.88
2023-01-26T17:48:29.654Z,51.58
2023-01-26T17:53:33.194Z,51.56
2023-01-26T17:58:36.920Z,50.06
2023-01-26T18:03:43.283Z,50.78
2023-01-26T18:08:46.852Z,51.01
2023-01-26T18:13:51.601Z,51.79
2023-01-26T18:18:57.534Z,50.45
2023-01-26T18:24:02.451Z,52.66
2023-01-26T18:29:06.955Z,51.86
2023-01-26T18:34:12.861Z,51.62
2023-01-26T18:39:16.729Z,50.00
2023-01-26T18:44:20.158Z,50.83
2023-01-26T18:49:24.886Z,51.16
2023-01-26T18:54:29.141Z,51.26
2023-01-26T18:59:32.669Z,51.57
2023-01-26T19:04:37.423Z,51.62
2023-01-26T19:09:40.775Z,50.69
2023-01-26T19:14:44.189Z,50.59
2023-01-26T19:19:48.884Z,52.05
2023-01-26T19:24:52.407Z,50.85
2023-01-26T19:29:55.775Z,50.99
2023-01-26T19:35:00.547Z,51.33
2023-01-26T19:40:04.008Z,50.53
2023-01-26T19:45:08.012Z,50.50
2023-01-26T19:50:13.191Z,50.79
2023-01-26T19:55:16.851Z,51.82
2023-01-26T20:00:21.044Z,55.39
2023-01-26T20:05:26.089Z,50.97
2023-01-26T20:10:29.509Z,55.20
2023-01-26T20:15:35.407Z,53.37
2023-01-26T20:20:40.235Z,52.18
2023-01-26T20:25:43.755Z,51.65
2023-01-26T20:31:05.698Z,50.30
2023-01-26T20:36:12.402Z,49.93
2023-01-26T20:41:17.999Z,52.78
2023-01-26T20:46:21.628Z,52.09
2023-01-26T20:51:29.495Z,53.36
2023-01-26T20:56:33.263Z,51.77
2023-01-26T21:01:36.654Z,51.68
2023-01-26T21:06:41.683Z,52.63
2023-01-26T21:11:45.101Z,52.59
2023-01-26T21:16:48.638Z,51.64
2023-01-26T21:21:53.333Z,51.88
2023-01-26T21:26:56.670Z,50.92
2023-01-26T21:32:00.027Z,51.65
2023-01-26T21:37:06.310Z,52.25
2023-01-26T21:42:09.717Z,50.81
2023-01-26T21:47:13.140Z,50.51
2023-01-26T21:52:35.347Z,51.87
2023-01-26T21:57:56.178Z,51.78
2023-01-26T22:03:00.616Z,51.74
2023-01-26T22:08:14.440Z,52.20
2023-01-26T22:13:17.855Z,51.35
2023-01-26T22:18:21.299Z,51.41
2023-01-26T22:23:26.138Z,52.83
2023-01-26T22:28:29.570Z,53.94
2023-01-26T22:33:34.408Z,52.52
2023-01-26T22:38:39.981Z,53.78
2023-01-26T22:43:43.508Z,54.97
2023-01-26T22:48:46.939Z,53.79
2023-01-26T22:53:53.506Z,52.94
2023-01-26T22:59:00.520Z,53.36
2023-01-26T23:04:04.211Z,52.53
2023-01-26T23:09:09.111Z,54.22
2023-01-26T23:14:12.514Z,53.95
2023-01-26T23:19:15.913Z,54.01
2023-01-26T23:24:20.731Z,54.60
2023-01-26T23:29:24.531Z,52.55
2023-01-26T23:34:27.902Z,52.43
2023-01-26T23:39:32.720Z,53.41
2023-01-26T23:44:36.231Z,54.15
2023-01-26T23:49:39.667Z,53.49
2023-01-26T23:54:44.423Z,52.54
2023-01-26T23:59:47.805Z,51.89
